sensor_id;sensor_type;location;lat;lon;timestamp;pressure;altitude;pressure_sealevel;temperature;humidity
32761;BME280;19126;47.472;7.850;2024-01-30T00:00:12;76371.69;;;-146.25;56.32
32761;BME280;19126;47.472;7.850;2024-01-30T00:02:42;76371.69;;;-146.25;55.84
32761;BME280;19126;47.472;7.850;2024-01-30T00:05:11;76367.66;;;-146.25;55.35
32761;BME280;19126;47.472;7.850;2024-01-30T00:07:39;76363.66;;;-146.25;54.72
32761;BME280;19126;47.472;7.850;2024-01-30T00:10:07;76359.66;;;-146.25;54.45
32761;BME280;19126;47.472;7.850;2024-01-30T00:12:36;76375.69;;;-146.25;54.19
32761;BME280;19126;47.472;7.850;2024-01-30T00:15:04;76367.66;;;-146.25;54.02
32761;BME280;19126;47.472;7.850;2024-01-30T00:17:34;76371.69;;;-146.25;53.59
32761;BME280;19126;47.472;7.850;2024-01-30T00:20:02;76377.69;;;-146.25;53.70
32761;BME280;19126;47.472;7.850;2024-01-30T00:22:31;76383.72;;;-146.25;53.61
32761;BME280;19126;47.472;7.850;2024-01-30T00:24:59;76385.72;;;-146.25;53.94
32761;BME280;19126;47.472;7.850;2024-01-30T00:27:26;76389.72;;;-146.25;53.64
32761;BME280;19126;47.472;7.850;2024-01-30T00:29:55;76391.75;;;-146.25;53.21
32761;BME280;19126;47.472;7.850;2024-01-30T00:32:23;76389.72;;;-146.25;53.01
32761;BME280;19126;47.472;7.850;2024-01-30T00:34:50;76389.72;;;-146.25;52.93
32761;BME280;19126;47.472;7.850;2024-01-30T00:37:18;76389.72;;;-146.25;52.84
32761;BME280;19126;47.472;7.850;2024-01-30T00:39:45;76389.72;;;-146.25;52.75
32761;BME280;19126;47.472;7.850;2024-01-30T00:42:13;76387.72;;;-146.25;52.65
32761;BME280;19126;47.472;7.850;2024-01-30T00:44:40;76399.75;;;-146.25;52.77
32761;BME280;19126;47.472;7.850;2024-01-30T00:47:09;76397.75;;;-146.25;52.80
32761;BME280;19126;47.472;7.850;2024-01-30T00:49:37;76395.75;;;-146.25;52.63
32761;BME280;19126;47.472;7.850;2024-01-30T00:52:05;76397.75;;;-146.25;52.62
32761;BME280;19126;47.472;7.850;2024-01-30T00:54:33;76395.75;;;-146.25;52.73
32761;BME280;19126;47.472;7.850;2024-01-30T00:57:00;76391.75;;;-146.25;52.35
32761;BME280;19126;47.472;7.850;2024-01-30T00:59:28;76393.75;;;-146.25;52.20
32761;BME280;19126;47.472;7.850;2024-01-30T01:01:55;76389.72;;;-146.25;51.99
32761;BME280;19126;47.472;7.850;2024-01-30T01:04:24;76381.72;;;-146.25;51.79
32761;BME280;19126;47.472;7.850;2024-01-30T01:06:52;76387.72;;;-146.25;51.46
32761;BME280;19126;47.472;7.850;2024-01-30T01:09:20;76385.72;;;-146.25;51.33
32761;BME280;19126;47.472;7.850;2024-01-30T01:11:47;76393.75;;;-146.25;51.31
32761;BME280;19126;47.472;7.850;2024-01-30T01:14:15;76387.72;;;-146.25;51.37
32761;BME280;19126;47.472;7.850;2024-01-30T01:16:42;76393.75;;;-146.25;51.21
32761;BME280;19126;47.472;7.850;2024-01-30T01:19:10;76391.75;;;-146.25;51.10
32761;BME280;19126;47.472;7.850;2024-01-30T01:21:39;76385.72;;;-146.25;51.14
32761;BME280;19126;47.472;7.850;2024-01-30T01:24:06;76393.75;;;-146.25;50.99
32761;BME280;19126;47.472;7.850;2024-01-30T01:26:33;76389.72;;;-146.25;50.66
32761;BME280;19126;47.472;7.850;2024-01-30T01:29:01;76389.72;;;-146.25;50.38
32761;BME280;19126;47.472;7.850;2024-01-30T01:31:30;76389.72;;;-146.25;50.10
32761;BME280;19126;47.472;7.850;2024-01-30T01:33:57;76385.72;;;-146.25;50.14
32761;BME280;19126;47.472;7.850;2024-01-30T01:36:25;76395.75;;;-146.25;50.26
32761;BME280;19126;47.472;7.850;2024-01-30T01:38:53;76399.75;;;-146.25;50.22
32761;BME280;19126;47.472;7.850;2024-01-30T01:41:21;76397.75;;;-146.25;50.02
32761;BME280;19126;47.472;7.850;2024-01-30T01:43:48;76401.75;;;-146.25;50.26
32761;BME280;19126;47.472;7.850;2024-01-30T01:46:17;76401.75;;;-146.25;50.33
32761;BME280;19126;47.472;7.850;2024-01-30T01:48:44;76403.78;;;-146.25;50.32
32761;BME280;19126;47.472;7.850;2024-01-30T01:51:13;76391.75;;;-146.25;50.07
32761;BME280;19126;47.472;7.850;2024-01-30T01:53:41;76407.78;;;-146.25;50.67
32761;BME280;19126;47.472;7.850;2024-01-30T01:56:10;76409.78;;;-146.25;50.89
32761;BME280;19126;47.472;7.850;2024-01-30T01:58:38;76413.81;;;-146.25;51.09
32761;BME280;19126;47.472;7.850;2024-01-30T02:01:06;76405.78;;;-146.25;51.14
32761;BME280;19126;47.472;7.850;2024-01-30T02:03:35;76413.81;;;-146.25;51.56
32761;BME280;19126;47.472;7.850;2024-01-30T02:06:03;76413.81;;;-146.25;51.60
32761;BME280;19126;47.472;7.850;2024-01-30T02:08:31;76419.81;;;-146.25;51.49
32761;BME280;19126;47.472;7.850;2024-01-30T02:10:59;76417.81;;;-146.25;51.80
32761;BME280;19126;47.472;7.850;2024-01-30T02:13:28;76421.81;;;-146.25;51.65
32761;BME280;19126;47.472;7.850;2024-01-30T02:15:55;76425.84;;;-146.25;52.05
32761;BME280;19126;47.472;7.850;2024-01-30T02:18:23;76429.84;;;-146.25;51.64
32761;BME280;19126;47.472;7.850;2024-01-30T02:20:54;76431.84;;;-146.25;51.82
32761;BME280;19126;47.472;7.850;2024-01-30T02:23:24;76439.88;;;-146.25;52.20
32761;BME280;19126;47.472;7.850;2024-01-30T02:25:53;76437.88;;;-146.25;52.30
32761;BME280;19126;47.472;7.850;2024-01-30T02:28:21;76445.88;;;-146.25;52.08
32761;BME280;19126;47.472;7.850;2024-01-30T02:30:48;76443.88;;;-146.25;51.97
32761;BME280;19126;47.472;7.850;2024-01-30T02:33:16;76445.88;;;-146.25;51.93
32761;BME280;19126;47.472;7.850;2024-01-30T02:35:43;76437.88;;;-146.25;51.49
32761;BME280;19126;47.472;7.850;2024-01-30T02:38:11;76435.88;;;-146.25;51.35
32761;BME280;19126;47.472;7.850;2024-01-30T02:40:39;76427.84;;;-146.25;51.84
32761;BME280;19126;47.472;7.850;2024-01-30T02:43:07;76437.88;;;-146.25;52.35
32761;BME280;19126;47.472;7.850;2024-01-30T02:45:34;76441.88;;;-146.25;52.13
32761;BME280;19126;47.472;7.850;2024-01-30T02:48:02;76439.88;;;-146.25;52.15
32761;BME280;19126;47.472;7.850;2024-01-30T02:50:30;76431.84;;;-146.25;52.17
32761;BME280;19126;47.472;7.850;2024-01-30T02:52:57;76431.84;;;-146.25;52.03
32761;BME280;19126;47.472;7.850;2024-01-30T02:55:24;76435.88;;;-146.25;52.46
32761;BME280;19126;47.472;7.850;2024-01-30T02:57:53;76437.88;;;-146.25;52.35
32761;BME280;19126;47.472;7.850;2024-01-30T03:00:21;76439.88;;;-146.25;52.26
32761;BME280;19126;47.472;7.850;2024-01-30T03:02:48;76439.88;;;-146.25;51.77
32761;BME280;19126;47.472;7.850;2024-01-30T03:05:15;76435.88;;;-146.25;51.83
32761;BME280;19126;47.472;7.850;2024-01-30T03:07:43;76433.84;;;-146.25;51.54
32761;BME280;19126;47.472;7.850;2024-01-30T03:10:10;76435.88;;;-146.25;51.28
32761;BME280;19126;47.472;7.850;2024-01-30T03:12:37;76433.84;;;-146.25;50.64
32761;BME280;19126;47.472;7.850;2024-01-30T03:15:07;76447.91;;;-146.25;50.57
32761;BME280;19126;47.472;7.850;2024-01-30T03:17:35;76445.88;;;-146.25;50.77
32761;BME280;19126;47.472;7.850;2024-01-30T03:20:04;76439.88;;;-146.25;50.47
32761;BME280;19126;47.472;7.850;2024-01-30T03:22:33;76445.88;;;-146.25;50.37
32761;BME280;19126;47.472;7.850;2024-01-30T03:25:00;76443.88;;;-146.25;50.12
32761;BME280;19126;47.472;7.850;2024-01-30T03:27:28;76449.91;;;-146.25;49.81
32761;BME280;19126;47.472;7.850;2024-01-30T03:29:56;76455.91;;;-146.25;49.76
32761;BME280;19126;47.472;7.850;2024-01-30T03:32:25;76447.91;;;-146.25;49.93
32761;BME280;19126;47.472;7.850;2024-01-30T03:34:52;76447.91;;;-146.25;49.42
32761;BME280;19126;47.472;7.850;2024-01-30T03:37:20;76443.88;;;-146.25;49.74
32761;BME280;19126;47.472;7.850;2024-01-30T03:39:47;76449.91;;;-146.25;49.23
32761;BME280;19126;47.472;7.850;2024-01-30T03:42:14;76443.88;;;-146.25;48.90
32761;BME280;19126;47.472;7.850;2024-01-30T03:44:42;76457.94;;;-146.25;48.70
32761;BME280;19126;47.472;7.850;2024-01-30T03:47:10;76455.91;;;-146.25;49.08
32761;BME280;19126;47.472;7.850;2024-01-30T03:49:39;76463.94;;;-146.25;48.81
32761;BME280;19126;47.472;7.850;2024-01-30T03:52:06;76469.97;;;-146.25;49.32
32761;BME280;19126;47.472;7.850;2024-01-30T03:54:34;76471.97;;;-146.25;49.48
32761;BME280;19126;47.472;7.850;2024-01-30T03:57:01;76482.00;;;-146.25;49.72
32761;BME280;19126;47.472;7.850;2024-01-30T03:59:29;76482.00;;;-146.25;49.44
32761;BME280;19126;47.472;7.850;2024-01-30T04:01:56;76482.00;;;-146.25;49.47
32761;BME280;19126;47.472;7.850;2024-01-30T04:04:23;76486.00;;;-146.25;49.27
32761;BME280;19126;47.472;7.850;2024-01-30T04:06:52;76484.00;;;-146.25;49.05
32761;BME280;19126;47.472;7.850;2024-01-30T04:09:19;76492.03;;;-146.25;49.22
32761;BME280;19126;47.472;7.850;2024-01-30T04:11:47;76492.03;;;-146.25;48.91
32761;BME280;19126;47.472;7.850;2024-01-30T04:14:14;76494.03;;;-146.25;49.10
32761;BME280;19126;47.472;7.850;2024-01-30T04:16:42;76498.03;;;-146.25;48.97
32761;BME280;19126;47.472;7.850;2024-01-30T04:19:09;76498.03;;;-146.25;48.88
32761;BME280;19126;47.472;7.850;2024-01-30T04:21:37;76504.06;;;-146.25;48.76
32761;BME280;19126;47.472;7.850;2024-01-30T04:24:06;76494.03;;;-146.25;49.23
32761;BME280;19126;47.472;7.850;2024-01-30T04:26:33;76502.06;;;-146.25;49.27
32761;BME280;19126;47.472;7.850;2024-01-30T04:29:01;76506.06;;;-146.25;49.89
32761;BME280;19126;47.472;7.850;2024-01-30T04:31:28;76508.06;;;-146.25;49.59
32761;BME280;19126;47.472;7.850;2024-01-30T04:33:55;76508.06;;;-146.25;50.19
32761;BME280;19126;47.472;7.850;2024-01-30T04:36:22;76510.06;;;-146.25;50.60
32761;BME280;19126;47.472;7.850;2024-01-30T04:38:50;76510.06;;;-146.25;50.07
32761;BME280;19126;47.472;7.850;2024-01-30T04:41:18;76520.09;;;-146.25;50.39
32761;BME280;19126;47.472;7.850;2024-01-30T04:43:46;76520.09;;;-146.25;50.26
32761;BME280;19126;47.472;7.850;2024-01-30T04:46:13;76520.09;;;-146.25;50.18
32761;BME280;19126;47.472;7.850;2024-01-30T04:48:40;76528.13;;;-146.25;50.49
32761;BME280;19126;47.472;7.850;2024-01-30T04:51:08;76522.09;;;-146.25;49.98
32761;BME280;19126;47.472;7.850;2024-01-30T04:53:35;76520.09;;;-146.25;50.32
32761;BME280;19126;47.472;7.850;2024-01-30T04:56:04;76526.13;;;-146.25;49.82
32761;BME280;19126;47.472;7.850;2024-01-30T04:58:33;76524.13;;;-146.25;49.97
32761;BME280;19126;47.472;7.850;2024-01-30T05:01:01;76520.09;;;-146.25;49.60
32761;BME280;19126;47.472;7.850;2024-01-30T05:03:29;76528.13;;;-146.25;49.57
32761;BME280;19126;47.472;7.850;2024-01-30T05:05:59;76522.09;;;-146.25;49.37
32761;BME280;19126;47.472;7.850;2024-01-30T05:08:27;76520.09;;;-146.25;48.85
32761;BME280;19126;47.472;7.850;2024-01-30T05:10:54;76522.09;;;-146.25;48.46
32761;BME280;19126;47.472;7.850;2024-01-30T05:13:22;76520.09;;;-146.25;48.73
32761;BME280;19126;47.472;7.850;2024-01-30T05:15:50;76522.09;;;-146.25;48.00
32761;BME280;19126;47.472;7.850;2024-01-30T05:18:18;76512.06;;;-146.25;47.29
32761;BME280;19126;47.472;7.850;2024-01-30T05:20:45;76514.09;;;-146.25;47.31
32761;BME280;19126;47.472;7.850;2024-01-30T05:23:13;76508.06;;;-146.25;46.68
32761;BME280;19126;47.472;7.850;2024-01-30T05:25:40;76510.06;;;-146.25;46.25
32761;BME280;19126;47.472;7.850;2024-01-30T05:28:08;76506.06;;;-146.25;46.13
32761;BME280;19126;47.472;7.850;2024-01-30T05:30:35;76504.06;;;-146.25;45.58
32761;BME280;19126;47.472;7.850;2024-01-30T05:33:04;76506.06;;;-146.25;45.08
32761;BME280;19126;47.472;7.850;2024-01-30T05:35:31;76508.06;;;-146.25;45.23
32761;BME280;19126;47.472;7.850;2024-01-30T05:37:59;76524.13;;;-146.25;44.76
32761;BME280;19126;47.472;7.850;2024-01-30T05:40:26;76518.09;;;-146.25;44.70
32761;BME280;19126;47.472;7.850;2024-01-30T05:42:54;76520.09;;;-146.25;44.16
32761;BME280;19126;47.472;7.850;2024-01-30T05:45:21;76524.13;;;-146.25;43.73
32761;BME280;19126;47.472;7.850;2024-01-30T05:47:49;76516.09;;;-146.25;43.80
32761;BME280;19126;47.472;7.850;2024-01-30T05:50:18;76524.13;;;-146.25;43.21
32761;BME280;19126;47.472;7.850;2024-01-30T05:52:46;76520.09;;;-146.25;43.25
32761;BME280;19126;47.472;7.850;2024-01-30T05:55:13;76518.09;;;-146.25;42.89
32761;BME280;19126;47.472;7.850;2024-01-30T05:57:41;76532.13;;;-146.25;42.70
32761;BME280;19126;47.472;7.850;2024-01-30T06:00:09;76524.13;;;-146.25;42.47
32761;BME280;19126;47.472;7.850;2024-01-30T06:02:36;76532.13;;;-146.25;42.19
32761;BME280;19126;47.472;7.850;2024-01-30T06:05:04;76534.13;;;-146.25;41.81
32761;BME280;19126;47.472;7.850;2024-01-30T06:07:33;76542.16;;;-146.25;41.86
32761;BME280;19126;47.472;7.850;2024-01-30T06:10:00;76542.16;;;-146.25;41.21
32761;BME280;19126;47.472;7.850;2024-01-30T06:12:29;76550.19;;;-146.25;41.25
32761;BME280;19126;47.472;7.850;2024-01-30T06:14:56;76552.19;;;-146.25;40.98
32761;BME280;19126;47.472;7.850;2024-01-30T06:17:24;76566.22;;;-146.25;41.47
32761;BME280;19126;47.472;7.850;2024-01-30T06:19:51;76566.22;;;-146.25;41.10
32761;BME280;19126;47.472;7.850;2024-01-30T06:22:19;76562.22;;;-146.25;41.14
32761;BME280;19126;47.472;7.850;2024-01-30T06:24:48;76562.22;;;-146.25;41.09
32761;BME280;19126;47.472;7.850;2024-01-30T06:27:15;76570.25;;;-146.25;40.69
32761;BME280;19126;47.472;7.850;2024-01-30T06:29:44;76568.25;;;-146.25;41.06
32761;BME280;19126;47.472;7.850;2024-01-30T06:32:11;76576.25;;;-146.25;41.37
32761;BME280;19126;47.472;7.850;2024-01-30T06:34:38;76580.28;;;-146.25;41.31
32761;BME280;19126;47.472;7.850;2024-01-30T06:37:06;76584.28;;;-146.25;41.08
32761;BME280;19126;47.472;7.850;2024-01-30T06:39:33;76586.28;;;-146.25;41.24
32761;BME280;19126;47.472;7.850;2024-01-30T06:42:03;76588.28;;;-146.25;41.39
32761;BME280;19126;47.472;7.850;2024-01-30T06:44:31;76594.31;;;-146.25;41.46
32761;BME280;19126;47.472;7.850;2024-01-30T06:46:58;76596.31;;;-146.25;41.89
32761;BME280;19126;47.472;7.850;2024-01-30T06:49:26;76596.31;;;-146.25;41.76
32761;BME280;19126;47.472;7.850;2024-01-30T06:51:53;76598.31;;;-146.25;42.13
32761;BME280;19126;47.472;7.850;2024-01-30T06:54:21;76604.34;;;-146.25;41.82
32761;BME280;19126;47.472;7.850;2024-01-30T06:56:48;76606.34;;;-146.25;42.26
32761;BME280;19126;47.472;7.850;2024-01-30T06:59:17;76600.34;;;-146.25;42.40
32761;BME280;19126;47.472;7.850;2024-01-30T07:01:44;76608.34;;;-146.25;42.47
32761;BME280;19126;47.472;7.850;2024-01-30T07:04:12;76616.38;;;-146.25;42.79
32761;BME280;19126;47.472;7.850;2024-01-30T07:06:39;76614.38;;;-146.25;42.29
32761;BME280;19126;47.472;7.850;2024-01-30T07:09:07;76610.34;;;-146.25;42.94
32761;BME280;19126;47.472;7.850;2024-01-30T07:11:35;76608.34;;;-146.25;42.72
32761;BME280;19126;47.472;7.850;2024-01-30T07:14:02;76612.38;;;-146.25;42.52
32761;BME280;19126;47.472;7.850;2024-01-30T07:16:32;76602.34;;;-146.25;42.49
32761;BME280;19126;47.472;7.850;2024-01-30T07:18:59;76600.34;;;-146.25;42.14
32761;BME280;19126;47.472;7.850;2024-01-30T07:21:27;76592.31;;;-146.25;42.26
32761;BME280;19126;47.472;7.850;2024-01-30T07:23:54;76592.31;;;-146.25;41.98
32761;BME280;19126;47.472;7.850;2024-01-30T07:26:22;76586.28;;;-146.25;41.70
32761;BME280;19126;47.472;7.850;2024-01-30T07:28:49;76592.31;;;-146.25;42.22
32761;BME280;19126;47.472;7.850;2024-01-30T07:31:20;76586.28;;;-146.25;42.05
32761;BME280;19126;47.472;7.850;2024-01-30T07:33:50;76586.28;;;-146.25;41.62
32761;BME280;19126;47.472;7.850;2024-01-30T07:36:18;76580.28;;;-146.25;41.84
32761;BME280;19126;47.472;7.850;2024-01-30T07:38:45;76578.25;;;-146.25;41.53
32761;BME280;19126;47.472;7.850;2024-01-30T07:41:13;76564.22;;;-146.25;41.31
32761;BME280;19126;47.472;7.850;2024-01-30T07:43:40;76556.19;;;-146.25;41.06
32761;BME280;19126;47.472;7.850;2024-01-30T07:46:07;76542.16;;;-146.25;40.49
32761;BME280;19126;47.472;7.850;2024-01-30T07:48:35;76520.09;;;-146.25;39.63
32761;BME280;19126;47.472;7.850;2024-01-30T07:51:04;76494.03;;;-146.25;39.29
32761;BME280;19126;47.472;7.850;2024-01-30T07:53:31;76459.94;;;-146.25;38.88
32761;BME280;19126;47.472;7.850;2024-01-30T07:55:58;76437.88;;;-146.25;38.70
32761;BME280;19126;47.472;7.850;2024-01-30T07:58:26;76405.78;;;-146.25;38.09
32761;BME280;19126;47.472;7.850;2024-01-30T08:00:54;76385.72;;;-146.25;37.97
32761;BME280;19126;47.472;7.850;2024-01-30T08:03:23;76355.63;;;-146.25;37.92
32761;BME280;19126;47.472;7.850;2024-01-30T08:05:51;76347.63;;;-146.25;38.48
32761;BME280;19126;47.472;7.850;2024-01-30T08:08:20;76329.56;;;-146.25;38.65
32761;BME280;19126;47.472;7.850;2024-01-30T08:10:47;76311.50;;;-146.25;39.05
32761;BME280;19126;47.472;7.850;2024-01-30T08:13:15;76273.41;;;-146.25;39.08
32761;BME280;19126;47.472;7.850;2024-01-30T08:15:43;76243.31;;;-146.25;38.60
32761;BME280;19126;47.472;7.850;2024-01-30T08:18:10;76219.25;;;-146.25;38.95
32761;BME280;19126;47.472;7.850;2024-01-30T08:20:37;76183.16;;;-146.25;39.47
32761;BME280;19126;47.472;7.850;2024-01-30T08:23:05;76159.09;;;-146.25;41.45
32761;BME280;19126;47.472;7.850;2024-01-30T08:25:33;76129.00;;;-146.25;44.33
32761;BME280;19126;47.472;7.850;2024-01-30T08:28:02;76076.88;;;-146.25;44.95
32761;BME280;19126;47.472;7.850;2024-01-30T08:30:30;76038.75;;;-146.25;47.50
32761;BME280;19126;47.472;7.850;2024-01-30T08:32:57;76016.69;;;-146.25;53.33
32761;BME280;19126;47.472;7.850;2024-01-30T08:35:25;75984.63;;;-146.25;56.89
32761;BME280;19126;47.472;7.850;2024-01-30T08:37:52;75954.53;;;-146.25;62.12
32761;BME280;19126;47.472;7.850;2024-01-30T08:40:20;75930.47;;;-146.25;67.44
32761;BME280;19126;47.472;7.850;2024-01-30T08:42:48;75910.41;;;-146.25;73.02
32761;BME280;19126;47.472;7.850;2024-01-30T08:45:16;75916.44;;;-146.25;78.16
32761;BME280;19126;47.472;7.850;2024-01-30T08:47:44;75918.44;;;-146.25;82.07
32761;BME280;19126;47.472;7.850;2024-01-30T08:50:14;75942.50;;;-146.25;86.35
32761;BME280;19126;47.472;7.850;2024-01-30T08:52:43;75956.53;;;-146.25;88.38
32761;BME280;19126;47.472;7.850;2024-01-30T08:55:10;75962.56;;;-146.25;88.70
32761;BME280;19126;47.472;7.850;2024-01-30T08:57:38;75978.59;;;-146.25;88.53
32761;BME280;19126;47.472;7.850;2024-01-30T09:00:08;75974.59;;;-146.25;88.78
32761;BME280;19126;47.472;7.850;2024-01-30T09:02:36;75974.59;;;-146.25;88.48
32761;BME280;19126;47.472;7.850;2024-01-30T09:05:04;75992.63;;;-146.25;88.60
32761;BME280;19126;47.472;7.850;2024-01-30T09:07:31;75986.63;;;-146.25;87.95
32761;BME280;19126;47.472;7.850;2024-01-30T09:09:58;75996.66;;;-146.25;88.26
32761;BME280;19126;47.472;7.850;2024-01-30T09:12:26;75990.63;;;-146.25;87.63
32761;BME280;19126;47.472;7.850;2024-01-30T09:14:53;75982.59;;;-146.25;85.96
32761;BME280;19126;47.472;7.850;2024-01-30T09:17:23;75980.59;;;-146.25;84.93
32761;BME280;19126;47.472;7.850;2024-01-30T09:19:51;75968.56;;;-146.25;84.11
32761;BME280;19126;47.472;7.850;2024-01-30T09:22:18;75964.56;;;-146.25;83.64
32761;BME280;19126;47.472;7.850;2024-01-30T09:24:45;75954.53;;;-146.25;82.88
32761;BME280;19126;47.472;7.850;2024-01-30T09:27:13;75946.50;;;-146.25;82.86
32761;BME280;19126;47.472;7.850;2024-01-30T09:29:40;75942.50;;;-146.25;81.91
32761;BME280;19126;47.472;7.850;2024-01-30T09:32:08;75928.47;;;-146.25;82.27
32761;BME280;19126;47.472;7.850;2024-01-30T09:34:37;75906.41;;;-146.25;81.71
32761;BME280;19126;47.472;7.850;2024-01-30T09:37:05;75876.31;;;-146.25;81.21
32761;BME280;19126;47.472;7.850;2024-01-30T09:39:33;75848.25;;;-146.25;81.65
32761;BME280;19126;47.472;7.850;2024-01-30T09:42:05;75824.19;;;-146.25;82.81
32761;BME280;19126;47.472;7.850;2024-01-30T09:44:38;75810.16;;;-146.25;84.22
32761;BME280;19126;47.472;7.850;2024-01-30T09:47:08;75792.09;;;-146.25;85.36
32761;BME280;19126;47.472;7.850;2024-01-30T09:49:40;75774.03;;;-146.25;86.60
32761;BME280;19126;47.472;7.850;2024-01-30T09:52:09;75737.94;;;-146.25;87.64
32761;BME280;19126;47.472;7.850;2024-01-30T09:54:38;75707.88;;;-146.25;88.28
32761;BME280;19126;47.472;7.850;2024-01-30T09:57:07;75679.81;;;-146.25;88.75
32761;BME280;19126;47.472;7.850;2024-01-30T09:59:35;75659.75;;;-146.25;88.60
32761;BME280;19126;47.472;7.850;2024-01-30T10:02:03;75657.75;;;-146.25;87.83
32761;BME280;19126;47.472;7.850;2024-01-30T10:04:30;75647.72;;;-146.25;87.88
32761;BME280;19126;47.472;7.850;2024-01-30T10:07:02;75643.69;;;-146.25;87.17
32761;BME280;19126;47.472;7.850;2024-01-30T10:09:32;75645.72;;;-146.25;86.71
32761;BME280;19126;47.472;7.850;2024-01-30T10:12:02;75647.72;;;-146.25;86.79
32761;BME280;19126;47.472;7.850;2024-01-30T10:14:30;75647.72;;;-146.25;87.25
32761;BME280;19126;47.472;7.850;2024-01-30T10:16:58;75637.69;;;-146.25;87.42
32761;BME280;19126;47.472;7.850;2024-01-30T10:19:26;75633.69;;;-146.25;87.26
32761;BME280;19126;47.472;7.850;2024-01-30T10:21:53;75633.69;;;-146.25;86.25
32761;BME280;19126;47.472;7.850;2024-01-30T10:24:26;75625.66;;;-146.25;85.83
32761;BME280;19126;47.472;7.850;2024-01-30T10:26:55;75621.66;;;-146.25;85.72
32761;BME280;19126;47.472;7.850;2024-01-30T10:29:23;75617.63;;;-146.25;86.22
32761;BME280;19126;47.472;7.850;2024-01-30T10:31:58;75613.63;;;-146.25;85.83
32761;BME280;19126;47.472;7.850;2024-01-30T10:34:26;75607.59;;;-146.25;85.77
32761;BME280;19126;47.472;7.850;2024-01-30T10:37:05;75593.56;;;-146.25;85.25
32761;BME280;19126;47.472;7.850;2024-01-30T10:39:40;75565.50;;;-146.25;84.42
32761;BME280;19126;47.472;7.850;2024-01-30T10:42:15;75535.41;;;-146.25;84.21
32761;BME280;19126;47.472;7.850;2024-01-30T10:45:02;75523.38;;;-146.25;82.71
32761;BME280;19126;47.472;7.850;2024-01-30T10:47:35;75505.34;;;-146.25;81.20
32761;BME280;19126;47.472;7.850;2024-01-30T10:50:03;75495.31;;;-146.25;81.17
32761;BME280;19126;47.472;7.850;2024-01-30T10:52:32;75483.28;;;-146.25;81.08
32761;BME280;19126;47.472;7.850;2024-01-30T10:55:01;75469.25;;;-146.25;81.09
32761;BME280;19126;47.472;7.850;2024-01-30T10:57:34;75449.19;;;-146.25;80.84
32761;BME280;19126;47.472;7.850;2024-01-30T11:00:05;75441.19;;;-146.25;79.73
32761;BME280;19126;47.472;7.850;2024-01-30T11:02:38;75425.13;;;-146.25;79.02
32761;BME280;19126;47.472;7.850;2024-01-30T11:05:06;75411.09;;;-146.25;79.86
32761;BME280;19126;47.472;7.850;2024-01-30T11:07:34;75409.09;;;-146.25;80.88
32761;BME280;19126;47.472;7.850;2024-01-30T11:10:05;75385.03;;;-146.25;80.57
32761;BME280;19126;47.472;7.850;2024-01-30T11:12:39;75381.03;;;-146.25;80.80
32761;BME280;19126;47.472;7.850;2024-01-30T11:15:12;75362.97;;;-146.25;80.80
32761;BME280;19126;47.472;7.850;2024-01-30T11:17:42;75348.94;;;-146.25;79.75
32761;BME280;19126;47.472;7.850;2024-01-30T11:20:14;75352.94;;;-146.25;78.41
32761;BME280;19126;47.472;7.850;2024-01-30T11:22:44;75342.94;;;-146.25;77.55
32761;BME280;19126;47.472;7.850;2024-01-30T11:25:14;75326.88;;;-146.25;77.12
32761;BME280;19126;47.472;7.850;2024-01-30T11:27:42;75318.88;;;-146.25;76.73
32761;BME280;19126;47.472;7.850;2024-01-30T11:30:20;75288.78;;;-146.25;76.17
32761;BME280;19126;47.472;7.850;2024-01-30T11:33:02;75270.75;;;-146.25;74.49
32761;BME280;19126;47.472;7.850;2024-01-30T11:35:32;75258.72;;;-146.25;72.54
32761;BME280;19126;47.472;7.850;2024-01-30T11:38:01;75244.69;;;-146.25;72.30
32761;BME280;19126;47.472;7.850;2024-01-30T11:40:32;75228.63;;;-146.25;71.58
32761;BME280;19126;47.472;7.850;2024-01-30T11:43:01;75216.59;;;-146.25;70.90
32761;BME280;19126;47.472;7.850;2024-01-30T11:45:30;75208.59;;;-146.25;71.67
32761;BME280;19126;47.472;7.850;2024-01-30T11:47:59;75194.56;;;-146.25;72.06
32761;BME280;19126;47.472;7.850;2024-01-30T11:50:29;75174.50;;;-146.25;72.38
32761;BME280;19126;47.472;7.850;2024-01-30T11:52:57;75156.44;;;-146.25;71.95
32761;BME280;19126;47.472;7.850;2024-01-30T11:55:25;75152.44;;;-146.25;71.16
32761;BME280;19126;47.472;7.850;2024-01-30T11:57:57;75152.44;;;-146.25;70.31
32761;BME280;19126;47.472;7.850;2024-01-30T12:00:25;75142.41;;;-146.25;69.87
32761;BME280;19126;47.472;7.850;2024-01-30T12:02:54;75134.41;;;-146.25;68.34
32761;BME280;19126;47.472;7.850;2024-01-30T12:05:23;75130.38;;;-146.25;65.52
32761;BME280;19126;47.472;7.850;2024-01-30T12:07:51;75132.41;;;-146.25;64.21
32761;BME280;19126;47.472;7.850;2024-01-30T12:10:19;75130.38;;;-146.25;64.02
32761;BME280;19126;47.472;7.850;2024-01-30T12:12:48;75116.34;;;-146.25;63.27
32761;BME280;19126;47.472;7.850;2024-01-30T12:15:20;75104.31;;;-146.25;62.97
32761;BME280;19126;47.472;7.850;2024-01-30T12:17:48;75104.31;;;-146.25;60.83
32761;BME280;19126;47.472;7.850;2024-01-30T12:20:19;75092.28;;;-146.25;59.44
32761;BME280;19126;47.472;7.850;2024-01-30T12:22:48;75100.31;;;-146.25;59.32
32761;BME280;19126;47.472;7.850;2024-01-30T12:25:17;75100.31;;;-146.25;57.39
32761;BME280;19126;47.472;7.850;2024-01-30T12:27:46;75106.31;;;-146.25;56.42
32761;BME280;19126;47.472;7.850;2024-01-30T12:30:19;75098.31;;;-146.25;55.90
32761;BME280;19126;47.472;7.850;2024-01-30T12:32:49;75082.28;;;-146.25;54.43
32761;BME280;19126;47.472;7.850;2024-01-30T12:35:19;75068.22;;;-146.25;53.18
32761;BME280;19126;47.472;7.850;2024-01-30T12:37:49;75054.19;;;-146.25;51.64
32761;BME280;19126;47.472;7.850;2024-01-30T12:40:17;75056.22;;;-146.25;52.78
32761;BME280;19126;47.472;7.850;2024-01-30T12:42:47;75064.22;;;-146.25;53.31
32761;BME280;19126;47.472;7.850;2024-01-30T12:45:17;75072.25;;;-146.25;53.83